sensor_id;sensor_type;location;lat;lon;timestamp;P1;durP1;ratioP1;P2;durP2;ratioP2
52067;SDS011;60237;52.338;21.228;2024-03-29T00:00:26;540.78;;;47.45;;
52067;SDS011;60237;52.338;21.228;2024-03-29T00:02:51;630.03;;;56.25;;
52067;SDS011;60237;52.338;21.228;2024-03-29T00:05:17;702.90;;;63.75;;
52067;SDS011;60237;52.338;21.228;2024-03-29T00:07:43;619.55;;;55.70;;
52067;SDS011;60237;52.338;21.228;2024-03-29T00:10:08;682.63;;;62.28;;
52067;SDS011;60237;52.338;21.228;2024-03-29T00:12:34;681.22;;;59.75;;
52067;SDS011;60237;52.338;21.228;2024-03-29T00:15:00;646.15;;;57.08;;
52067;SDS011;60237;52.338;21.228;2024-03-29T00:17:25;684.78;;;60.85;;
52067;SDS011;60237;52.338;21.228;2024-03-29T00:19:53;650.20;;;56.45;;
52067;SDS011;60237;52.338;21.228;2024-03-29T00:22:19;590.80;;;50.47;;
52067;SDS011;60237;52.338;21.228;2024-03-29T00:24:45;590.95;;;50.85;;
52067;SDS011;60237;52.338;21.228;2024-03-29T00:27:10;347.92;;;29.50;;
52067;SDS011;60237;52.338;21.228;2024-03-29T00:29:36;440.70;;;35.80;;
52067;SDS011;60237;52.338;21.228;2024-03-29T00:32:04;429.17;;;35.40;;
52067;SDS011;60237;52.338;21.228;2024-03-29T00:34:30;486.73;;;39.75;;
52067;SDS011;60237;52.338;21.228;2024-03-29T00:36:55;400.75;;;33.28;;
52067;SDS011;60237;52.338;21.228;2024-03-29T00:39:21;518.83;;;41.45;;
52067;SDS011;60237;52.338;21.228;2024-03-29T00:41:47;472.15;;;37.17;;
52067;SDS011;60237;52.338;21.228;2024-03-29T00:44:15;577.88;;;47.72;;
52067;SDS011;60237;52.338;21.228;2024-03-29T00:46:41;515.38;;;42.03;;
52067;SDS011;60237;52.338;21.228;2024-03-29T00:49:07;712.90;;;62.10;;
52067;SDS011;60237;52.338;21.228;2024-03-29T00:51:32;609.28;;;51.17;;
52067;SDS011;60237;52.338;21.228;2024-03-29T00:53:58;724.22;;;64.68;;
52067;SDS011;60237;52.338;21.228;2024-03-29T00:56:27;726.10;;;63.53;;
52067;SDS011;60237;52.338;21.228;2024-03-29T00:58:52;667.30;;;57.28;;
52067;SDS011;60237;52.338;21.228;2024-03-29T01:01:20;724.85;;;62.80;;
52067;SDS011;60237;52.338;21.228;2024-03-29T01:03:46;630.00;;;53.40;;
52067;SDS011;60237;52.338;21.228;2024-03-29T01:06:12;759.17;;;66.50;;
52067;SDS011;60237;52.338;21.228;2024-03-29T01:08:37;697.42;;;59.65;;
52067;SDS011;60237;52.338;21.228;2024-03-29T01:11:03;665.92;;;57.28;;
52067;SDS011;60237;52.338;21.228;2024-03-29T01:13:29;579.58;;;47.67;;
52067;SDS011;60237;52.338;21.228;2024-03-29T01:15:58;595.92;;;49.33;;
52067;SDS011;60237;52.338;21.228;2024-03-29T01:18:24;501.25;;;40.20;;
52067;SDS011;60237;52.338;21.228;2024-03-29T01:20:49;534.28;;;42.60;;
52067;SDS011;60237;52.338;21.228;2024-03-29T01:23:15;532.80;;;42.80;;
52067;SDS011;60237;52.338;21.228;2024-03-29T01:25:40;419.92;;;32.55;;
52067;SDS011;60237;52.338;21.228;2024-03-29T01:28:06;440.02;;;33.50;;
52067;SDS011;60237;52.338;21.228;2024-03-29T01:30:32;461.85;;;35.30;;
52067;SDS011;60237;52.338;21.228;2024-03-29T01:32:58;497.10;;;39.17;;
52067;SDS011;60237;52.338;21.228;2024-03-29T01:35:24;641.80;;;53.25;;
52067;SDS011;60237;52.338;21.228;2024-03-29T01:37:50;741.78;;;63.03;;
52067;SDS011;60237;52.338;21.228;2024-03-29T01:40:15;765.38;;;65.82;;
52067;SDS011;60237;52.338;21.228;2024-03-29T01:42:41;726.28;;;61.78;;
52067;SDS011;60237;52.338;21.228;2024-03-29T01:45:07;715.35;;;60.05;;
52067;SDS011;60237;52.338;21.228;2024-03-29T01:47:33;695.97;;;57.85;;
52067;SDS011;60237;52.338;21.228;2024-03-29T01:49:59;753.50;;;64.57;;
52067;SDS011;60237;52.338;21.228;2024-03-29T01:52:24;509.23;;;39.17;;
52067;SDS011;60237;52.338;21.228;2024-03-29T01:54:50;770.78;;;66.80;;
52067;SDS011;60237;52.338;21.228;2024-03-29T01:57:16;817.22;;;71.13;;
52067;SDS011;60237;52.338;21.228;2024-03-29T01:59:42;790.78;;;67.80;;
52067;SDS011;60237;52.338;21.228;2024-03-29T02:05:00;48.20;;;4.75;;
52067;SDS011;60237;52.338;21.228;2024-03-29T02:07:26;20.02;;;2.50;;
52067;SDS011;60237;52.338;21.228;2024-03-29T02:09:53;33.45;;;3.72;;
52067;SDS011;60237;52.338;21.228;2024-03-29T02:12:18;19.45;;;3.05;;
52067;SDS011;60237;52.338;21.228;2024-03-29T02:14:44;43.22;;;4.07;;
52067;SDS011;60237;52.338;21.228;2024-03-29T02:17:10;45.60;;;4.15;;
52067;SDS011;60237;52.338;21.228;2024-03-29T02:19:35;34.17;;;3.72;;
52067;SDS011;60237;52.338;21.228;2024-03-29T02:22:01;26.55;;;3.35;;
52067;SDS011;60237;52.338;21.228;2024-03-29T02:24:30;52.00;;;5.18;;
52067;SDS011;60237;52.338;21.228;2024-03-29T02:26:56;65.25;;;5.05;;
52067;SDS011;60237;52.338;21.228;2024-03-29T02:29:23;23.63;;;2.78;;
52067;SDS011;60237;52.338;21.228;2024-03-29T02:31:48;15.90;;;2.55;;
52067;SDS011;60237;52.338;21.228;2024-03-29T02:34:14;33.60;;;3.75;;
52067;SDS011;60237;52.338;21.228;2024-03-29T02:36:40;33.00;;;3.40;;
52067;SDS011;60237;52.338;21.228;2024-03-29T02:39:08;44.63;;;3.92;;
52067;SDS011;60237;52.338;21.228;2024-03-29T02:41:34;32.80;;;3.50;;
52067;SDS011;60237;52.338;21.228;2024-03-29T02:43:59;26.70;;;3.58;;
52067;SDS011;60237;52.338;21.228;2024-03-29T02:46:28;15.88;;;3.08;;
52067;SDS011;60237;52.338;21.228;2024-03-29T02:48:53;27.55;;;3.22;;
52067;SDS011;60237;52.338;21.228;2024-03-29T02:51:19;30.13;;;3.33;;
52067;SDS011;60237;52.338;21.228;2024-03-29T02:53:45;25.83;;;2.97;;
52067;SDS011;60237;52.338;21.228;2024-03-29T02:56:10;38.33;;;3.70;;
52067;SDS011;60237;52.338;21.228;2024-03-29T02:58:36;19.27;;;2.90;;
52067;SDS011;60237;52.338;21.228;2024-03-29T03:01:05;63.13;;;5.20;;
52067;SDS011;60237;52.338;21.228;2024-03-29T03:03:31;87.70;;;6.57;;
52067;SDS011;60237;52.338;21.228;2024-03-29T03:05:56;14.30;;;2.92;;
52067;SDS011;60237;52.338;21.228;2024-03-29T03:08:22;15.95;;;2.78;;
52067;SDS011;60237;52.338;21.228;2024-03-29T03:11:06;29.83;;;3.10;;
52067;SDS011;60237;52.338;21.228;2024-03-29T03:13:32;35.95;;;3.85;;
52067;SDS011;60237;52.338;21.228;2024-03-29T03:15:57;19.67;;;3.00;;
52067;SDS011;60237;52.338;21.228;2024-03-29T03:18:23;46.67;;;4.18;;
52067;SDS011;60237;52.338;21.228;2024-03-29T03:20:52;51.70;;;4.05;;
52067;SDS011;60237;52.338;21.228;2024-03-29T03:23:18;30.30;;;3.13;;
52067;SDS011;60237;52.338;21.228;2024-03-29T03:25:44;38.10;;;3.45;;
52067;SDS011;60237;52.338;21.228;2024-03-29T03:28:10;32.38;;;2.85;;
52067;SDS011;60237;52.338;21.228;2024-03-29T03:30:39;31.73;;;3.15;;
52067;SDS011;60237;52.338;21.228;2024-03-29T03:33:05;65.72;;;4.72;;
52067;SDS011;60237;52.338;21.228;2024-03-29T03:35:31;28.45;;;3.00;;
52067;SDS011;60237;52.338;21.228;2024-03-29T03:37:57;33.25;;;3.30;;
52067;SDS011;60237;52.338;21.228;2024-03-29T03:40:22;32.53;;;2.88;;
52067;SDS011;60237;52.338;21.228;2024-03-29T03:42:48;29.55;;;2.97;;
52067;SDS011;60237;52.338;21.228;2024-03-29T03:45:14;18.10;;;2.03;;
52067;SDS011;60237;52.338;21.228;2024-03-29T03:47:39;44.70;;;3.80;;
52067;SDS011;60237;52.338;21.228;2024-03-29T03:50:05;45.80;;;3.63;;
52067;SDS011;60237;52.338;21.228;2024-03-29T03:52:30;59.63;;;4.47;;
52067;SDS011;60237;52.338;21.228;2024-03-29T03:54:56;51.75;;;3.88;;
52067;SDS011;60237;52.338;21.228;2024-03-29T03:57:22;20.73;;;2.67;;
52067;SDS011;60237;52.338;21.228;2024-03-29T03:59:49;20.50;;;2.63;;
52067;SDS011;60237;52.338;21.228;2024-03-29T04:02:15;25.52;;;2.92;;
52067;SDS011;60237;52.338;21.228;2024-03-29T04:04:40;38.13;;;3.25;;
52067;SDS011;60237;52.338;21.228;2024-03-29T04:07:06;42.55;;;3.58;;
52067;SDS011;60237;52.338;21.228;2024-03-29T04:09:31;15.13;;;2.25;;
52067;SDS011;60237;52.338;21.228;2024-03-29T04:11:57;28.85;;;3.00;;
52067;SDS011;60237;52.338;21.228;2024-03-29T04:14:22;19.42;;;2.25;;
52067;SDS011;60237;52.338;21.228;2024-03-29T04:16:48;32.42;;;3.20;;
52067;SDS011;60237;52.338;21.228;2024-03-29T04:19:14;25.63;;;2.53;;
52067;SDS011;60237;52.338;21.228;2024-03-29T04:21:39;30.60;;;2.88;;
52067;SDS011;60237;52.338;21.228;2024-03-29T04:24:05;31.30;;;2.88;;
52067;SDS011;60237;52.338;21.228;2024-03-29T04:26:33;37.45;;;3.20;;
52067;SDS011;60237;52.338;21.228;2024-03-29T04:28:58;35.40;;;3.22;;
52067;SDS011;60237;52.338;21.228;2024-03-29T04:31:24;55.53;;;4.30;;
52067;SDS011;60237;52.338;21.228;2024-03-29T04:33:49;40.78;;;3.58;;
52067;SDS011;60237;52.338;21.228;2024-03-29T04:36:15;23.23;;;2.47;;
52067;SDS011;60237;52.338;21.228;2024-03-29T04:38:41;22.30;;;2.88;;
52067;SDS011;60237;52.338;21.228;2024-03-29T04:41:06;33.47;;;3.38;;
52067;SDS011;60237;52.338;21.228;2024-03-29T04:43:32;27.17;;;2.75;;
52067;SDS011;60237;52.338;21.228;2024-03-29T04:46:13;15.20;;;2.28;;
52067;SDS011;60237;52.338;21.228;2024-03-29T04:48:42;31.33;;;3.33;;
52067;SDS011;60237;52.338;21.228;2024-03-29T04:51:08;23.60;;;2.75;;
52067;SDS011;60237;52.338;21.228;2024-03-29T04:53:37;27.10;;;2.80;;
52067;SDS011;60237;52.338;21.228;2024-03-29T04:56:06;22.88;;;3.05;;
52067;SDS011;60237;52.338;21.228;2024-03-29T04:58:32;31.92;;;3.10;;
52067;SDS011;60237;52.338;21.228;2024-03-29T05:00:57;37.63;;;3.67;;
52067;SDS011;60237;52.338;21.228;2024-03-29T05:03:23;61.42;;;4.75;;
52067;SDS011;60237;52.338;21.228;2024-03-29T05:05:49;15.50;;;2.10;;
52067;SDS011;60237;52.338;21.228;2024-03-29T05:08:15;25.77;;;2.97;;
52067;SDS011;60237;52.338;21.228;2024-03-29T05:10:41;18.13;;;2.28;;
52067;SDS011;60237;52.338;21.228;2024-03-29T05:13:07;49.97;;;4.18;;
52067;SDS011;60237;52.338;21.228;2024-03-29T05:15:32;31.35;;;3.35;;
52067;SDS011;60237;52.338;21.228;2024-03-29T05:17:58;18.40;;;2.78;;
52067;SDS011;60237;52.338;21.228;2024-03-29T05:20:24;18.40;;;2.97;;
52067;SDS011;60237;52.338;21.228;2024-03-29T05:22:49;36.25;;;4.15;;
52067;SDS011;60237;52.338;21.228;2024-03-29T05:25:15;20.95;;;3.22;;
52067;SDS011;60237;52.338;21.228;2024-03-29T05:27:41;30.10;;;4.40;;
52067;SDS011;60237;52.338;21.228;2024-03-29T05:30:06;22.75;;;4.10;;
52067;SDS011;60237;52.338;21.228;2024-03-29T05:32:32;31.77;;;4.20;;
52067;SDS011;60237;52.338;21.228;2024-03-29T05:34:58;59.20;;;5.38;;
52067;SDS011;60237;52.338;21.228;2024-03-29T05:37:24;65.25;;;5.88;;
52067;SDS011;60237;52.338;21.228;2024-03-29T05:39:52;19.88;;;2.80;;
52067;SDS011;60237;52.338;21.228;2024-03-29T05:42:25;25.35;;;3.28;;
52067;SDS011;60237;52.338;21.228;2024-03-29T05:44:51;29.77;;;3.45;;
52067;SDS011;60237;52.338;21.228;2024-03-29T05:47:17;21.42;;;2.72;;
52067;SDS011;60237;52.338;21.228;2024-03-29T05:49:42;35.33;;;3.42;;
52067;SDS011;60237;52.338;21.228;2024-03-29T05:52:08;20.20;;;3.00;;
52067;SDS011;60237;52.338;21.228;2024-03-29T05:54:33;26.90;;;3.33;;
52067;SDS011;60237;52.338;21.228;2024-03-29T05:56:59;52.58;;;4.32;;
52067;SDS011;60237;52.338;21.228;2024-03-29T05:59:24;22.42;;;2.70;;
52067;SDS011;60237;52.338;21.228;2024-03-29T06:01:50;28.77;;;3.80;;
52067;SDS011;60237;52.338;21.228;2024-03-29T06:04:17;44.65;;;4.35;;
52067;SDS011;60237;52.338;21.228;2024-03-29T06:06:45;69.07;;;5.95;;
52067;SDS011;60237;52.338;21.228;2024-03-29T06:09:10;42.92;;;3.97;;
52067;SDS011;60237;52.338;21.228;2024-03-29T06:11:36;26.92;;;3.15;;
52067;SDS011;60237;52.338;21.228;2024-03-29T06:14:02;43.33;;;4.00;;
52067;SDS011;60237;52.338;21.228;2024-03-29T06:16:33;35.70;;;3.67;;
52067;SDS011;60237;52.338;21.228;2024-03-29T06:19:17;32.30;;;3.20;;
52067;SDS011;60237;52.338;21.228;2024-03-29T06:21:43;21.95;;;3.08;;
52067;SDS011;60237;52.338;21.228;2024-03-29T06:24:09;36.47;;;3.67;;
52067;SDS011;60237;52.338;21.228;2024-03-29T06:26:42;50.72;;;4.45;;
52067;SDS011;60237;52.338;21.228;2024-03-29T06:29:08;42.20;;;4.28;;
52067;SDS011;60237;52.338;21.228;2024-03-29T06:31:36;31.85;;;3.65;;
52067;SDS011;60237;52.338;21.228;2024-03-29T06:34:02;22.33;;;2.72;;
52067;SDS011;60237;52.338;21.228;2024-03-29T06:36:28;40.40;;;3.63;;
52067;SDS011;60237;52.338;21.228;2024-03-29T06:38:55;53.47;;;4.90;;
52067;SDS011;60237;52.338;21.228;2024-03-29T06:41:21;37.38;;;3.50;;
52067;SDS011;60237;52.338;21.228;2024-03-29T06:43:47;13.60;;;2.40;;
52067;SDS011;60237;52.338;21.228;2024-03-29T06:46:13;53.97;;;4.72;;
52067;SDS011;60237;52.338;21.228;2024-03-29T06:48:39;43.53;;;3.75;;
52067;SDS011;60237;52.338;21.228;2024-03-29T06:51:04;28.48;;;3.38;;
52067;SDS011;60237;52.338;21.228;2024-03-29T06:53:30;24.30;;;3.25;;
52067;SDS011;60237;52.338;21.228;2024-03-29T06:55:55;16.70;;;2.70;;
52067;SDS011;60237;52.338;21.228;2024-03-29T06:58:22;26.60;;;2.97;;
52067;SDS011;60237;52.338;21.228;2024-03-29T07:00:48;39.53;;;3.78;;
52067;SDS011;60237;52.338;21.228;2024-03-29T07:03:14;44.60;;;4.18;;
52067;SDS011;60237;52.338;21.228;2024-03-29T07:05:40;15.82;;;2.80;;
52067;SDS011;60237;52.338;21.228;2024-03-29T07:08:06;33.20;;;3.63;;
52067;SDS011;60237;52.338;21.228;2024-03-29T07:10:32;19.40;;;2.65;;
52067;SDS011;60237;52.338;21.228;2024-03-29T07:12:57;50.10;;;4.78;;
52067;SDS011;60237;52.338;21.228;2024-03-29T07:15:23;22.60;;;2.72;;
52067;SDS011;60237;52.338;21.228;2024-03-29T07:17:49;39.00;;;4.03;;
52067;SDS011;60237;52.338;21.228;2024-03-29T07:20:18;48.78;;;4.22;;
52067;SDS011;60237;52.338;21.228;2024-03-29T07:22:43;71.40;;;5.82;;
52067;SDS011;60237;52.338;21.228;2024-03-29T07:25:10;29.88;;;3.38;;
52067;SDS011;60237;52.338;21.228;2024-03-29T07:27:36;43.90;;;4.18;;
52067;SDS011;60237;52.338;21.228;2024-03-29T07:30:02;26.83;;;3.17;;
52067;SDS011;60237;52.338;21.228;2024-03-29T07:32:29;43.80;;;3.85;;
52067;SDS011;60237;52.338;21.228;2024-03-29T07:34:55;51.00;;;4.28;;
52067;SDS011;60237;52.338;21.228;2024-03-29T07:37:26;33.17;;;3.38;;
52067;SDS011;60237;52.338;21.228;2024-03-29T07:39:52;35.13;;;3.65;;
52067;SDS011;60237;52.338;21.228;2024-03-29T07:42:17;36.70;;;3.25;;
52067;SDS011;60237;52.338;21.228;2024-03-29T07:44:44;26.48;;;2.90;;
52067;SDS011;60237;52.338;21.228;2024-03-29T07:47:10;49.03;;;4.32;;
52067;SDS011;60237;52.338;21.228;2024-03-29T07:49:38;61.30;;;4.85;;
52067;SDS011;60237;52.338;21.228;2024-03-29T07:52:05;20.38;;;2.65;;
52067;SDS011;60237;52.338;21.228;2024-03-29T07:54:34;28.23;;;3.08;;
52067;SDS011;60237;52.338;21.228;2024-03-29T07:56:59;41.13;;;3.65;;
52067;SDS011;60237;52.338;21.228;2024-03-29T07:59:26;25.10;;;3.47;;
52067;SDS011;60237;52.338;21.228;2024-03-29T08:01:52;18.27;;;2.65;;
52067;SDS011;60237;52.338;21.228;2024-03-29T08:04:20;28.00;;;2.72;;
52067;SDS011;60237;52.338;21.228;2024-03-29T08:06:45;39.10;;;3.72;;
52067;SDS011;60237;52.338;21.228;2024-03-29T08:09:11;39.20;;;3.67;;
52067;SDS011;60237;52.338;21.228;2024-03-29T08:11:39;35.70;;;3.35;;
52067;SDS011;60237;52.338;21.228;2024-03-29T08:14:05;23.15;;;2.90;;
52067;SDS011;60237;52.338;21.228;2024-03-29T08:16:31;15.38;;;1.95;;
52067;SDS011;60237;52.338;21.228;2024-03-29T08:18:57;58.08;;;4.75;;
52067;SDS011;60237;52.338;21.228;2024-03-29T08:21:23;47.25;;;4.07;;
52067;SDS011;60237;52.338;21.228;2024-03-29T08:23:48;28.35;;;3.38;;
52067;SDS011;60237;52.338;21.228;2024-03-29T08:26:16;27.15;;;2.63;;
52067;SDS011;60237;52.338;21.228;2024-03-29T08:28:44;43.00;;;3.38;;
52067;SDS011;60237;52.338;21.228;2024-03-29T08:31:09;42.10;;;3.38;;
52067;SDS011;60237;52.338;21.228;2024-03-29T08:33:35;19.88;;;2.38;;
52067;SDS011;60237;52.338;21.228;2024-03-29T08:36:05;25.77;;;2.83;;
52067;SDS011;60237;52.338;21.228;2024-03-29T08:38:31;30.52;;;2.75;;
52067;SDS011;60237;52.338;21.228;2024-03-29T08:40:56;42.78;;;3.30;;
52067;SDS011;60237;52.338;21.228;2024-03-29T08:43:22;38.33;;;3.05;;
52067;SDS011;60237;52.338;21.228;2024-03-29T08:45:48;32.72;;;2.83;;
52067;SDS011;60237;52.338;21.228;2024-03-29T08:48:13;40.50;;;3.17;;
52067;SDS011;60237;52.338;21.228;2024-03-29T08:50:39;38.83;;;3.17;;
52067;SDS011;60237;52.338;21.228;2024-03-29T08:53:05;33.72;;;3.13;;
52067;SDS011;60237;52.338;21.228;2024-03-29T08:55:31;32.88;;;2.55;;
52067;SDS011;60237;52.338;21.228;2024-03-29T08:57:57;25.00;;;2.05;;
52067;SDS011;60237;52.338;21.228;2024-03-29T09:00:27;46.88;;;3.33;;
52067;SDS011;60237;52.338;21.228;2024-03-29T09:02:53;29.98;;;2.90;;
52067;SDS011;60237;52.338;21.228;2024-03-29T09:05:19;56.13;;;4.07;;
52067;SDS011;60237;52.338;21.228;2024-03-29T09:07:44;30.77;;;2.20;;
52067;SDS011;60237;52.338;21.228;2024-03-29T09:10:11;44.60;;;3.17;;
52067;SDS011;60237;52.338;21.228;2024-03-29T09:12:37;39.10;;;2.88;;
52067;SDS011;60237;52.338;21.228;2024-03-29T09:15:03;30.75;;;2.65;;
52067;SDS011;60237;52.338;21.228;2024-03-29T09:17:34;17.98;;;1.88;;
52067;SDS011;60237;52.338;21.228;2024-03-29T09:20:00;58.47;;;3.97;;
52067;SDS011;60237;52.338;21.228;2024-03-29T09:22:25;21.00;;;2.47;;
52067;SDS011;60237;52.338;21.228;2024-03-29T09:24:51;35.95;;;3.42;;
52067;SDS011;60237;52.338;21.228;2024-03-29T09:27:16;48.13;;;3.55;;
52067;SDS011;60237;52.338;21.228;2024-03-29T09:29:42;48.25;;;3.40;;
52067;SDS011;60237;52.338;21.228;2024-03-29T09:32:08;38.60;;;2.75;;
52067;SDS011;60237;52.338;21.228;2024-03-29T09:34:34;31.50;;;2.67;;
52067;SDS011;60237;52.338;21.228;2024-03-29T09:36:59;44.10;;;3.13;;
52067;SDS011;60237;52.338;21.228;2024-03-29T09:39:25;29.33;;;2.50;;
52067;SDS011;60237;52.338;21.228;2024-03-29T09:41:50;20.08;;;2.03;;
52067;SDS011;60237;52.338;21.228;2024-03-29T09:44:17;44.22;;;3.58;;
52067;SDS011;60237;52.338;21.228;2024-03-29T09:46:46;49.28;;;3.53;;
52067;SDS011;60237;52.338;21.228;2024-03-29T09:49:13;32.53;;;2.60;;
52067;SDS011;60237;52.338;21.228;2024-03-29T09:51:39;32.90;;;2.80;;
52067;SDS011;60237;52.338;21.228;2024-03-29T09:54:05;46.58;;;3.72;;
52067;SDS011;60237;52.338;21.228;2024-03-29T09:56:33;23.50;;;2.28;;
52067;SDS011;60237;52.338;21.228;2024-03-29T09:58:59;66.93;;;4.63;;
52067;SDS011;60237;52.338;21.228;2024-03-29T10:01:26;13.77;;;1.58;;
52067;SDS011;60237;52.338;21.228;2024-03-29T10:03:53;28.13;;;2.72;;
52067;SDS011;60237;52.338;21.228;2024-03-29T10:06:19;39.67;;;3.58;;
52067;SDS011;60237;52.338;21.228;2024-03-29T10:08:47;37.67;;;2.78;;
52067;SDS011;60237;52.338;21.228;2024-03-29T10:11:14;30.75;;;2.72;;
52067;SDS011;60237;52.338;21.228;2024-03-29T10:13:42;33.33;;;2.83;;
52067;SDS011;60237;52.338;21.228;2024-03-29T10:16:08;28.73;;;2.63;;
52067;SDS011;60237;52.338;21.228;2024-03-29T10:18:36;22.70;;;2.53;;
52067;SDS011;60237;52.338;21.228;2024-03-29T10:21:05;52.83;;;3.90;;
52067;SDS011;60237;52.338;21.228;2024-03-29T10:23:35;18.25;;;1.83;;
52067;SDS011;60237;52.338;21.228;2024-03-29T10:26:01;21.33;;;2.35;;
52067;SDS011;60237;52.338;21.228;2024-03-29T10:28:31;15.52;;;1.77;;
52067;SDS011;60237;52.338;21.228;2024-03-29T10:31:00;52.25;;;3.85;;
52067;SDS011;60237;52.338;21.228;2024-03-29T10:33:30;36.60;;;3.08;;
52067;SDS011;60237;52.338;21.228;2024-03-29T10:35:56;42.50;;;3.97;;
52067;SDS011;60237;52.338;21.228;2024-03-29T10:38:24;27.52;;;2.33;;
52067;SDS011;60237;52.338;21.228;2024-03-29T10:40:50;54.58;;;4.15;;
52067;SDS011;60237;52.338;21.228;2024-03-29T10:43:16;79.85;;;5.30;;
52067;SDS011;60237;52.338;21.228;2024-03-29T10:45:42;26.25;;;2.95;;
52067;SDS011;60237;52.338;21.228;2024-03-29T10:48:08;31.63;;;3.35;;
52067;SDS011;60237;52.338;21.228;2024-03-29T10:50:35;47.63;;;3.33;;
52067;SDS011;60237;52.338;21.228;2024-03-29T10:53:01;74.25;;;5.10;;
52067;SDS011;60237;52.338;21.228;2024-03-29T10:55:29;36.55;;;2.85;;
52067;SDS011;60237;52.338;21.228;2024-03-29T10:57:57;20.50;;;2.28;;
52067;SDS011;60237;52.338;21.228;2024-03-29T11:00:23;22.58;;;2.10;;
52067;SDS011;60237;52.338;21.228;2024-03-29T11:05:21;28.65;;;2.72;;
52067;SDS011;60237;52.338;21.228;2024-03-29T11:07:47;17.05;;;1.70;;
52067;SDS011;60237;52.338;21.228;2024-03-29T11:10:25;22.30;;;2.08;;
52067;SDS011;60237;52.338;21.228;2024-03-29T11:15:37;66.50;;;4.38;;
52067;SDS011;60237;52.338;21.228;2024-03-29T11:18:03;42.65;;;2.90;;
52067;SDS011;60237;52.338;21.228;2024-03-29T11:20:29;40.05;;;3.65;;
52067;SDS011;60237;52.338;21.228;2024-03-29T11:23:03;40.28;;;2.85;;
52067;SDS011;60237;52.338;21.228;2024-03-29T11:25:39;25.33;;;2.33;;
52067;SDS011;60237;52.338;21.228;2024-03-29T11:28:05;34.95;;;2.65;;
52067;SDS011;60237;52.338;21.228;2024-03-29T11:30:39;49.67;;;3.60;;
52067;SDS011;60237;52.338;21.228;2024-03-29T11:33:05;45.22;;;3.30;;
52067;SDS011;60237;52.338;21.228;2024-03-29T11:35:30;15.43;;;1.85;;
52067;SDS011;60237;52.338;21.228;2024-03-29T11:37:58;35.75;;;2.47;;
52067;SDS011;60237;52.338;21.228;2024-03-29T11:40:29;53.15;;;3.45;;
52067;SDS011;60237;52.338;21.228;2024-03-29T11:42:54;38.38;;;2.97;;
52067;SDS011;60237;52.338;21.228;2024-03-29T11:45:21;75.68;;;4.90;;
52067;SDS011;60237;52.338;21.228;2024-03-29T11:47:48;61.28;;;4.03;;
52067;SDS011;60237;52.338;21.228;2024-03-29T11:50:15;31.33;;;2.28;;
52067;SDS011;60237;52.338;21.228;2024-03-29T11:52:41;59.75;;;4.20;;
52067;SDS011;60237;52.338;21.228;2024-03-29T11:55:07;31.08;;;2.53;;
52067;SDS011;60237;52.338;21.228;2024-03-29T11:57:33;24.05;;;1.92;;
52067;SDS011;60237;52.338;21.228;2024-03-29T11:59:58;31.17;;;2.42;;
52067;SDS011;60237;52.338;21.228;2024-03-29T12:02:24;31.80;;;2.28;;
52067;SDS011;60237;52.338;21.228;2024-03-29T12:04:49;81.90;;;5.32;;
52067;SDS011;60237;52.338;21.228;2024-03-29T12:07:16;40.03;;;2.85;;
52067;SDS011;60237;52.338;21.228;2024-03-29T12:09:41;29.90;;;2.13;;
52067;SDS011;60237;52.338;21.228;2024-03-29T12:12:07;41.45;;;3.70;;
52067;SDS011;60237;52.338;21.228;2024-03-29T12:14:35;42.72;;;3.38;;
52067;SDS011;60237;52.338;21.228;2024-03-29T12:17:09;31.25;;;2.13;;
52067;SDS011;60237;52.338;21.228;2024-03-29T12:19:35;26.93;;;2.13;;
52067;SDS011;60237;52.338;21.228;2024-03-29T12:22:03;37.78;;;2.70;;
52067;SDS011;60237;52.338;21.228;2024-03-29T12:24:29;25.35;;;2.47;;
52067;SDS011;60237;52.338;21.228;2024-03-29T12:26:54;67.13;;;4.38;;
52067;SDS011;60237;52.338;21.228;2024-03-29T12:29:20;43.17;;;2.90;;
52067;SDS011;60237;52.338;21.228;2024-03-29T12:31:55;60.88;;;3.85;;
52067;SDS011;60237;52.338;21.228;2024-03-29T12:34:21;46.58;;;3.70;;
52067;SDS011;60237;52.338;21.228;2024-03-29T12:36:47;86.70;;;5.72;;
52067;SDS011;60237;52.338;21.228;2024-03-29T12:39:13;27.98;;;2.22;;
52067;SDS011;60237;52.338;21.228;2024-03-29T12:41:38;29.02;;;2.17;;
52067;SDS011;60237;52.338;21.228;2024-03-29T12:44:04;71.07;;;4.50;;
52067;SDS011;60237;52.338;21.228;2024-03-29T12:46:31;18.52;;;1.80;;
52067;SDS011;60237;52.338;21.228;2024-03-29T12:49:00;39.72;;;2.80;;
52067;SDS011;60237;52.338;21.228;2024-03-29T12:51:27;68.88;;;4.50;;
52067;SDS011;60237;52.338;21.228;2024-03-29T12:53:53;46.75;;;3.25;;
52067;SDS011;60237;52.338;21.228;2024-03-29T12:56:18;36.80;;;2.70;;
52067;SDS011;60237;52.338;21.228;2024-03-29T12:58:44;55.33;;;3.55;;
52067;SDS011;60237;52.338;21.228;2024-03-29T13:01:10;53.28;;;3.50;;
52067;SDS011;60237;52.338;21.228;2024-03-29T13:03:36;84.97;;;5.40;;
52067;SDS011;60237;52.338;21.228;2024-03-29T13:06:03;22.23;;;1.90;;
52067;SDS011;60237;52.338;21.228;2024-03-29T13:08:29;33.20;;;2.40;;
52067;SDS011;60237;52.338;21.228;2024-03-29T13:10:54;43.22;;;2.85;;
52067;SDS011;60237;52.338;21.228;2024-03-29T13:13:20;37.42;;;3.35;;
52067;SDS011;60237;52.338;21.228;2024-03-29T13:15:46;35.25;;;2.83;;
52067;SDS011;60237;52.338;21.228;2024-03-29T13:18:12;49.78;;;3.40;;
52067;SDS011;60237;52.338;21.228;2024-03-29T13:20:41;62.45;;;4.90;;
52067;SDS011;60237;52.338;21.228;2024-03-29T13:23:08;59.05;;;4.22;;
52067;SDS011;60237;52.338;21.228;2024-03-29T13:25:34;29.73;;;2.65;;
52067;SDS011;60237;52.338;21.228;2024-03-29T13:27:59;31.63;;;2.60;;
52067;SDS011;60237;52.338;21.228;2024-03-29T13:30:26;38.88;;;2.80;;
52067;SDS011;60237;52.338;21.228;2024-03-29T13:32:52;68.95;;;4.70;;
52067;SDS011;60237;52.338;21.228;2024-03-29T13:35:18;85.55;;;5.70;;
52067;SDS011;60237;52.338;21.228;2024-03-29T13:37:47;38.38;;;3.25;;
52067;SDS011;60237;52.338;21.228;2024-03-29T13:40:13;36.88;;;2.83;;
52067;SDS011;60237;52.338;21.228;2024-03-29T13:42:39;32.78;;;2.70;;
52067;SDS011;60237;52.338;21.228;2024-03-29T13:45:07;59.90;;;3.78;;
52067;SDS011;60237;52.338;21.228;2024-03-29T13:47:42;19.17;;;2.08;;
52067;SDS011;60237;52.338;21.228;2024-03-29T13:50:08;32.20;;;2.40;;
52067;SDS011;60237;52.338;21.228;2024-03-29T13:52:34;25.75;;;2.03;;
52067;SDS011;60237;52.338;21.228;2024-03-29T13:55:00;70.22;;;4.65;;
52067;SDS011;60237;52.338;21.228;2024-03-29T13:57:26;27.92;;;2.00;;
52067;SDS011;60237;52.338;21.228;2024-03-29T13:59:52;38.90;;;3.08;;
52067;SDS011;60237;52.338;21.228;2024-03-29T14:02:18;42.20;;;3.05;;
52067;SDS011;60237;52.338;21.228;2024-03-29T14:04:44;98.40;;;7.43;;
52067;SDS011;60237;52.338;21.228;2024-03-29T14:07:10;45.65;;;3.28;;
52067;SDS011;60237;52.338;21.228;2024-03-29T14:09:39;19.65;;;1.77;;
52067;SDS011;60237;52.338;21.228;2024-03-29T14:12:05;39.67;;;3.22;;
52067;SDS011;60237;52.338;21.228;2024-03-29T14:14:31;33.50;;;2.53;;
52067;SDS011;60237;52.338;21.228;2024-03-29T14:16:57;72.38;;;4.63;;
52067;SDS011;60237;52.338;21.228;2024-03-29T14:19:23;47.83;;;3.53;;
52067;SDS011;60237;52.338;21.228;2024-03-29T14:21:49;21.23;;;1.95;;